シャージャラル国際空港(ダッカ)の過去48時間の天気

シャージャラル国際空港(ダッカ) (Kurmitola, Dia)

現在時刻: 5/27 14:07 +06 (5/27 08:07 UTC) 以下の時間は現地時間です。

過去48時間のMETAR気象情報
時間 風向 風速(m/s) 視程 気温(℃) 湿度(%) 気圧(hPa) 天気現象
27 13:30 4 4000m 34 67 1004 煙霧
27 13:00 南南西 4 4000m 34 67 1005 煙霧
27 12:30 3 4000m 34 63 1006 煙霧
27 12:00 4 4000m 34 63 1006 煙霧
27 11:30 南南東 4 4000m 34 63 1006 煙霧
27 11:00 南南西 4 4000m 33 67 1007 煙霧
27 10:30 南南東 5 4000m 33 67 1007 煙霧
27 10:00 南南東 4 4000m 33 67 1007 煙霧
27 09:30 4 4000m 32 71 1007 煙霧
27 09:00 南南西 3 4000m 32 71 1007 煙霧
27 08:30 4 4000m 32 75 1007 煙霧
27 08:00 南南東 5 4000m 31 75 1006 煙霧
27 07:30 5 3500m 31 75 1006 煙霧
27 07:00 3 3500m 30 79 1005 煙霧
27 06:30 3 3500m 29 84 1006 煙霧
27 06:00 3 3500m 29 84 1006 煙霧
27 05:30 4 3500m 28 89 1006 煙霧
27 05:00 4 3500m 28 89 1005 煙霧
27 04:30 3 3500m 28 84 1005 煙霧
27 04:00 4 4000m 28 84 1005 煙霧
27 03:30 南南西 3 4000m 28 84 1005 煙霧
27 03:00 南南西 2 4000m 28 84 1005 煙霧
27 02:30 4 4000m 28 84 1005 煙霧
27 02:00 5 4000m 28 84 1005 煙霧
27 01:30 5 4000m 28 84 1005 煙霧
27 01:00 南南西 4 4000m 29 79 1005 煙霧
27 00:30 5 4000m 29 79 1006 煙霧
27 00:00 4 4000m 29 79 1006 煙霧
26 23:30 5 4000m 29 74 1006 煙霧
26 23:00 5 4000m 29 74 1006 煙霧
26 22:30 7 4000m 29 79 1005 煙霧
26 22:00 5 4000m 29 89 1006 煙霧
26 21:30 5 4000m 30 84 1005 煙霧
26 21:00 南南東 5 4000m 30 84 1005 煙霧
26 20:30 南南東 4 4000m 31 79 1005 煙霧
26 20:00 5 4000m 31 79 1004 煙霧
26 19:30 南南東 4 4000m 31 79 1003 煙霧
26 19:00 4 4000m 31 79 1003 煙霧
26 18:30 南南東 5 4000m 31 75 1002 煙霧
26 18:00 6 4000m 32 71 1002 煙霧
26 17:30 5 4000m 32 75 1002 煙霧
26 17:00 4 3500m 32 75 1002 霧雨
26 16:30 5 4000m 33 67 1002 煙霧
26 16:00 6 4000m 33 63 1002 煙霧
26 15:30 南南西 4 4000m 34 63 1003 煙霧
26 15:00 5 4000m 34 63 1003 煙霧
26 14:30 南南西 5 4000m 33 63 1003 煙霧
26 14:00 南東 3 4000m 33 63 1003 煙霧
26 13:30 東南東 5 4000m 33 63 1004 煙霧
26 13:00 6 4000m 33 63 1005 煙霧
26 12:30 7 4000m 33 63 1005 煙霧
26 12:00 6 4000m 33 67 1006 煙霧
26 11:30 南南西 5 4000m 32 71 1006 煙霧
26 11:00 南南東 5 4000m 32 71 1006 煙霧
26 10:30 4 4000m 32 71 1006 煙霧
26 10:00 6 4000m 32 71 1006 煙霧
26 09:30 南南西 3 4000m 31 75 1006 煙霧
26 09:00 4 4000m 31 75 1006 煙霧
26 08:30 5 - 30 75 1006 煙霧
26 08:00 7 3500m 29 79 1006 煙霧
26 07:30 6 3500m 29 79 1005 煙霧
26 07:00 5 3500m 28 84 1005 煙霧
26 06:30 4 3500m 27 84 1005 煙霧
26 06:00 4 3500m 26 89 1005 煙霧
26 05:30 南東 4 3500m 26 89 1004 煙霧
26 05:00 南南東 4 3500m 26 89 1004 煙霧
26 04:30 南南東 4 3500m 26 84 1004 煙霧
26 04:00 東南東 3 3500m 26 84 1004 煙霧
26 03:30 南東 2 3500m 26 84 1004 煙霧
26 03:00 南東 2 3500m 26 84 1004 煙霧
26 02:30 2 3500m 26 84 1004 煙霧
26 02:00 南東 2 3500m 26 84 1004 煙霧
26 01:30 東南東 3 3500m 26 84 1004 煙霧
26 01:00 南東 3 3500m 26 84 1004 煙霧
26 00:30 南南東 3 3500m 26 84 1003 煙霧
26 00:00 南南西 3 3500m 27 89 1003 煙霧
25 23:30 南南東 2 3500m 27 89 1004
25 23:00 2 3500m 27 89 1004
25 22:30 - - 3500m 27 89 1003
25 22:00 南南西 8 3500m 28 89 1004
25 21:30 7 3500m 28 84 1005 煙霧
25 21:00 4 3500m 28 84 1005 煙霧
25 20:30 南南東 3 3500m 28 84 1004 煙霧
25 20:00 3 3500m 28 84 1004 煙霧
25 19:30 3 3500m 27 89 1003 煙霧
25 19:00 南東 3 3500m 26 94 1003 煙霧
25 18:30 南東 3 2500m 26 94 1003 雷雨
25 18:00 東南東 4 2800m 26 94 1003
25 17:30 東南東 5 2500m 27 94 1002
25 17:00 6 2000m 27 94 1003
25 16:30 5 1000m 26 94 1002 雷雨
25 16:00 南南東 5 4000m 33 67 1002 煙霧
25 15:30 4 4000m 33 67 1002 煙霧
25 15:00 6 4000m 33 67 1003 煙霧
25 14:30 3 4000m 33 67 1003 煙霧
VGHS 270730Z 18008KT 4000 HZ SCT015 34/27 Q1004 NOSIG
VGHS 270700Z 21008KT 4000 HZ SCT015 34/27 Q1005 NOSIG
VGHS 270630Z 19006KT 4000 HZ SCT015 34/26 Q1006 NOSIG
VGHS 270600Z 18008KT 4000 HZ SCT015 34/26 Q1006 NOSIG
VGHS 270530Z 16007KT 4000 HZ SCT015 34/26 Q1006 NOSIG
VGHS 270500Z 20008KT 4000 HZ SCT015 33/26 Q1007 NOSIG
VGHS 270430Z 15009KT 4000 HZ SCT015 33/26 Q1007 NOSIG
VGHS 270400Z 16008KT 4000 HZ SCT015 33/26 Q1007 NOSIG
VGHS 270330Z 19007KT 4000 HZ SCT015 32/26 Q1007 NOSIG
VGHS 270300Z 21006KT 4000 HZ SCT015 32/26 Q1007 NOSIG
VGHS 270230Z 18007KT 4000 HZ FEW015 SCT100 32/27 Q1007 NOSIG
VGHS 270200Z 16009KT 4000 HZ FEW015 SCT100 31/26 Q1006 NOSIG
VGHS 270130Z 17009KT 3500 HZ FEW015 SCT100 31/26 Q1006 NOSIG
VGHS 270100Z 18006KT 3500 HZ FEW015 30/26 Q1005 NOSIG
VGHS 270030Z 18006KT 3500 HZ FEW015 SCT100 29/26 Q1006 NOSIG
VGHS 270000Z 19006KT 3500 HZ FEW015 SCT100 29/26 Q1006 NOSIG
VGHS 262330Z 19008KT 3500 HZ FEW015 28/26 Q1006 NOSIG
VGHS 262300Z 18007KT 3500 HZ FEW015 28/26 Q1005 NOSIG
VGHS 262230Z 17005KT 3500 HZ FEW015 28/25 Q1005 NOSIG
VGHS 262200Z 19007KT 4000 HZ FEW015 28/25 Q1005 NOSIG
VGHS 262130Z 20006KT 4000 HZ FEW015 28/25 Q1005 NOSIG
VGHS 262100Z 20003KT 4000 HZ FEW015 28/25 Q1005 NOSIG
VGHS 262030Z 18008KT 4000 HZ FEW015 SCT100 28/25 Q1005 NOSIG
VGHS 262000Z 18010KT 4000 HZ FEW015 SCT100 28/25 Q1005 NOSIG
VGHS 261930Z 19009KT 4000 HZ FEW015 SCT100 28/25 Q1005 NOSIG
VGHS 261900Z 20008KT 4000 HZ FEW015 SCT100 29/25 Q1005 NOSIG
VGHS 261830Z 19009KT 4000 HZ FEW015 SCT100 29/25 Q1006 NOSIG
VGHS 261800Z 17008KT 4000 HZ FEW015 SCT100 29/25 Q1006 NOSIG
VGHS 261730Z 18010KT 4000 HZ FEW015 SCT100 29/24 Q1006 NOSIG
VGHS 261700Z 19010KT 4000 HZ FEW015 SCT100 29/24 Q1006 NOSIG
VGHS 261630Z 18013KT 4000 HZ FEW015 SCT100 29/25 Q1005 NOSIG
VGHS 261600Z 18010KT 4000 HZ FEW015 SCT100 29/27 Q1006 NOSIG
VGHS 261530Z 17010KT 4000 HZ FEW015 SCT100 30/27 Q1005 NOSIG
VGHS 261500Z 16009KT 4000 HZ FEW015 SCT100 30/27 Q1005 NOSIG
VGHS 261430Z 16007KT 4000 HZ FEW015 SCT100 31/27 Q1005 NOSIG
VGHS 261400Z 17010KT 4000 HZ FEW015 SCT100 31/27 Q1004 NOSIG
VGHS 261330Z 16008KT 4000 HZ FEW015 SCT100 31/27 Q1003 NOSIG
VGHS 261300Z 17007KT 4000 HZ FEW015 SCT100 31/27 Q1003 NOSIG
VGHS 261230Z 16009KT 4000 HZ FEW015 SCT100 31/26 Q1002 NOSIG
VGHS 261200Z 18011KT 4000 HZ FEW015 SCT100 32/26 Q1002 NOSIG
VGHS 261130Z 19010KT 4000 HZ SCT012 FEW012CB BKN100 32/27 Q1002 TEMPO TSRA
VGHS 261100Z 17008KT 3500 DZ SCT010 FEW025CB BKN100 32/27 Q1002 TEMPO TSRA
VGHS 261030Z 17010KT 4000 HZ SCT012 FEW025CB BKN100 33/26 Q1002 TEMPO TSRA
VGHS 261000Z 17012KT 4000 HZ SCT012 FEW025CB BKN100 33/25 Q1002 TEMPO TSRA
VGHS 260930Z 21008KT 4000 HZ SCT012 FEW025CB BKN100 34/26 Q1003 TEMPO TSRA
VGHS 260900Z 17010KT 4000 HZ SCT012 FEW025CB BKN100 34/26 Q1003 TEMPO TSRA
VGHS 260830Z 20010KT 4000 HZ SCT015 BKN100 33/25 Q1003 NOSIG
VGHS 260800Z 13005KT 4000 HZ SCT012 BKN100 33/25 Q1003 NOSIG
VGHS 260730Z 12010KT 4000 HZ SCT012 BKN100 33/25 Q1004 NOSIG
VGHS 260700Z 18012KT 4000 HZ SCT012 BKN100 33/25 Q1005 NOSIG
VGHS 260630Z 18014KT 4000 HZ SCT015 BKN100 33/25 Q1005 NOSIG
VGHS 260600Z 17012KT 4000 HZ SCT015 BKN100 33/26 Q1006 NOSIG
VGHS 260530Z 20010KT 4000 HZ SCT012 BKN100 32/26 Q1006 NOSIG
VGHS 260500Z 16010KT 4000 HZ SCT012 BKN100 32/26 Q1006 NOSIG
VGHS 260430Z 19008KT 4000 HZ SCT012 BKN100 32/26 Q1006 NOSIG
VGHS 260400Z 18011KT 4000 HZ SCT012 BKN100 32/26 Q1006 NOSIG
VGHS 260330Z 20005KT 4000 HZ SCT012 BKN100 31/26 Q1006 NOSIG
VGHS 260300Z 18008KT 4000 HZ FEW015 31/26 Q1006 NOSIG
VGHS 260230Z 19010KT 400 HZ FEW015 30/25 Q1006 NOSIG
VGHS 260200Z 18013KT 3500 HZ FEW015 29/25 Q1006 NOSIG
VGHS 260130Z 18012KT 3500 HZ FEW015 29/25 Q1005 NOSIG
VGHS 260100Z 18010KT 3500 HZ SCT012 BKN100 28/25 Q1005 NOSIG
VGHS 260030Z 18007KT 3500 HZ SCT012 BKN100 27/24 Q1005 NOSIG
VGHS 260000Z 17007KT 3500 HZ BKN010 BKN100 26/24 Q1005 TEMPO TSRA
VGHS 252330Z 14007KT 3500 HZ BKN010 FEW025 CB BKN100 26/24 Q1004 TEMPO TSRA
VGHS 252300Z 15008KT 3500 HZ BKN010 FEW025 CB BKN100 26/24 Q1004 TEMPO TSRA
VGHS 252230Z 15007KT 3500 HZ SCT012 FEW025 CB BKN100 26/23 Q1004 TEMPO TSRA
VGHS 252200Z 12005KT 3500 HZ SCT012 FEW025CB BKN100 26/23 Q1004 TEMPO TSRA
VGHS 252130Z 14004KT 3500 HZ SCT012 BKN100 26/23 Q1004 NOSIG
VGHS 252100Z 13004KT 3500 HZ SCT012 BKN100 26/23 Q1004 NOSIG
VGHS 252030Z 19003KT 3500 HZ SCT012 BKN100 26/23 Q1004 NOSIG
VGHS 252000Z 14004KT 3500 HZ SCT012 BKN100 26/23 Q1004 NOSIG
VGHS 251930Z 12006KT 3500 HZ SCT012 BKN100 26/23 Q1004 NOSIG
VGHS 251900Z 14005KT 3500 HZ SCT012 BKN100 26/23 Q1004 NOSIG
VGHS 251830Z 15006KT 3500 HZ BKN010 BKN100 26/23 Q1003 TEMPO RA
VGHS 251800Z 20006KT 3500 HZ BKN010 FEW025CB BKN100 27/25 Q1003 TEMPO TSRA
VGHS 251730Z 16004KT 3500 TS BKN010 FEW025CB OVC090 27/25 Q1004 TEMPO TSRA
VGHS 251700Z 17003KT 3500 TS BKN010 FEW025CB OVC090 27/25 Q1004 TEMPO TSRA
VGHS 251630Z 2005KT 3500 TS BKN010 FEW025CB BKN100 27/25 Q1003 TEMPO TSRA
VGHS 251600Z 21015KT 3500 TS BKN010 FEW025CB BKN100 28/26 Q1004 TEMPO TSRA
VGHS 251530Z 17014KT 3500 HZ SCT012 FEW025CB BKN100 28/25 Q1005 TEMPO TSRA
VGHS 251500Z 18007KT 3500 HZ SCT012 FEW025CB BKN100 28/25 Q1005 TEMPO TSRA
VGHS 251430Z 16006KT 3500 HZ SCT012 BKN100 28/25 Q1004 TEMPO RA
VGHS 251400Z 17005KT 3500 HZ SCT015 BKN100 28/25 Q1004 NOSIG
VGHS 251330Z 19006KT 3500 HZ BKN010 BKN100 27/25 Q1003 TEMPO RA
VGHS 251300Z 14005KT 3500 HZ BKN010 OVC100 26/25 Q1003 TEMPO RA
VGHS 251230Z 14006KT 2500 TSRA BKN009 FEW025CB OVC090 26/25 Q1003 TEMPO +TSRA
VGHS 251200Z 11008KT 2800 TS BKN009 FEW025CB OVC100 26/25 Q1003 TEMPO TSRA
VGHS 251130Z 12009KT 2500 TS BKN009 FEW025CB OVC100 27/26 Q1002 TEMPO TSRA
VGHS 251100Z 08012KT 2000 TS BKN009 FEW025CB OVC100 27/26 Q1003 TEMPO TSRA
VGHS 251030Z 17010KT 1000 TSRA BKN008 FEW025CB OVC080 26/25 Q1002 TEMPO +TSRA
VGHS 251000Z 15010KT 4000 HZ SCT012 FEW025CB BKN100 33/26 Q1002 TEMPO TSRA
VGHS 250930Z 19007KT 4000 HZ SCT012 FEW025CB BKN100 33/26 Q1002 TEMPO TSRA
VGHS 250900Z 19012KT 4000 HZ SCT015 BKN100 33/26 Q1003 TEMPO RA
VGHS 250830Z 18006KT 4000 HZ SCT015 BKN100 33/26 Q1003 NOSIG